sensor_id;sensor_type;location;lat;lon;timestamp;pressure;altitude;pressure_sealevel;temperature;humidity
77450;BME280;66536;53.150;18.172;2024-02-26T00:01:59;100397.77;;;2.00;95.92
77450;BME280;66536;53.150;18.172;2024-02-26T00:04:26;100397.58;;;1.99;96.21
77450;BME280;66536;53.150;18.172;2024-02-26T00:06:52;100392.59;;;1.96;96.24
77450;BME280;66536;53.150;18.172;2024-02-26T00:09:20;100389.66;;;1.93;96.28
77450;BME280;66536;53.150;18.172;2024-02-26T00:11:53;100394.19;;;1.89;96.13
77450;BME280;66536;53.150;18.172;2024-02-26T00:14:22;100392.90;;;1.84;96.14
77450;BME280;66536;53.150;18.172;2024-02-26T00:16:51;100395.70;;;1.80;96.29
77450;BME280;66536;53.150;18.172;2024-02-26T00:19:30;100394.95;;;1.75;96.33
77450;BME280;66536;53.150;18.172;2024-02-26T00:22:03;100395.77;;;1.72;96.32
77450;BME280;66536;53.150;18.172;2024-02-26T00:24:43;100395.65;;;1.72;96.56
77450;BME280;66536;53.150;18.172;2024-02-26T00:27:16;100397.66;;;1.75;96.71
77450;BME280;66536;53.150;18.172;2024-02-26T00:29:54;100397.49;;;1.74;96.49
77450;BME280;66536;53.150;18.172;2024-02-26T00:32:26;100400.11;;;1.75;96.58
77450;BME280;66536;53.150;18.172;2024-02-26T00:34:54;100390.73;;;1.75;96.60
77450;BME280;66536;53.150;18.172;2024-02-26T00:37:22;100386.40;;;1.74;96.62
77450;BME280;66536;53.150;18.172;2024-02-26T00:39:51;100378.90;;;1.73;96.73
77450;BME280;66536;53.150;18.172;2024-02-26T00:42:20;100377.21;;;1.73;96.80
77450;BME280;66536;53.150;18.172;2024-02-26T00:44:46;100380.94;;;1.72;97.00
77450;BME280;66536;53.150;18.172;2024-02-26T00:47:17;100382.70;;;1.72;97.00
77450;BME280;66536;53.150;18.172;2024-02-26T00:49:48;100378.77;;;1.69;96.89
77450;BME280;66536;53.150;18.172;2024-02-26T00:52:15;100382.44;;;1.70;97.18
77450;BME280;66536;53.150;18.172;2024-02-26T00:54:44;100380.09;;;1.71;97.23
77450;BME280;66536;53.150;18.172;2024-02-26T00:57:10;100377.05;;;1.71;97.30
77450;BME280;66536;53.150;18.172;2024-02-26T00:59:37;100380.54;;;1.73;97.30
77450;BME280;66536;53.150;18.172;2024-02-26T01:02:04;100381.21;;;1.73;97.25
77450;BME280;66536;53.150;18.172;2024-02-26T01:04:34;100378.72;;;1.74;97.33
77450;BME280;66536;53.150;18.172;2024-02-26T01:07:01;100380.23;;;1.76;97.30
77450;BME280;66536;53.150;18.172;2024-02-26T01:09:29;100382.80;;;1.78;97.44
77450;BME280;66536;53.150;18.172;2024-02-26T01:12:02;100382.08;;;1.80;97.62
77450;BME280;66536;53.150;18.172;2024-02-26T01:14:31;100381.35;;;1.82;97.69
77450;BME280;66536;53.150;18.172;2024-02-26T01:17:02;100387.44;;;1.82;97.56
77450;BME280;66536;53.150;18.172;2024-02-26T01:19:30;100384.70;;;1.82;97.71
77450;BME280;66536;53.150;18.172;2024-02-26T01:22:00;100384.73;;;1.80;97.48
77450;BME280;66536;53.150;18.172;2024-02-26T01:24:27;100385.00;;;1.76;97.09
77450;BME280;66536;53.150;18.172;2024-02-26T01:26:56;100388.86;;;1.72;97.11
77450;BME280;66536;53.150;18.172;2024-02-26T01:29:25;100389.07;;;1.68;97.15
77450;BME280;66536;53.150;18.172;2024-02-26T01:31:54;100390.43;;;1.65;97.19
77450;BME280;66536;53.150;18.172;2024-02-26T01:34:22;100389.98;;;1.64;97.28
77450;BME280;66536;53.150;18.172;2024-02-26T01:36:50;100384.59;;;1.65;97.45
77450;BME280;66536;53.150;18.172;2024-02-26T01:39:17;100388.23;;;1.68;97.90
77450;BME280;66536;53.150;18.172;2024-02-26T01:41:49;100387.02;;;1.73;97.95
77450;BME280;66536;53.150;18.172;2024-02-26T01:44:19;100392.79;;;1.80;98.12
77450;BME280;66536;53.150;18.172;2024-02-26T01:46:47;100394.94;;;1.87;98.04
77450;BME280;66536;53.150;18.172;2024-02-26T01:49:14;100396.41;;;1.94;98.00
77450;BME280;66536;53.150;18.172;2024-02-26T01:51:43;100397.52;;;2.01;97.76
77450;BME280;66536;53.150;18.172;2024-02-26T01:54:12;100397.70;;;2.08;97.78
77450;BME280;66536;53.150;18.172;2024-02-26T01:56:41;100397.24;;;2.14;97.58
77450;BME280;66536;53.150;18.172;2024-02-26T01:59:08;100392.77;;;2.19;97.44
77450;BME280;66536;53.150;18.172;2024-02-26T02:01:35;100397.91;;;2.24;97.25
77450;BME280;66536;53.150;18.172;2024-02-26T02:04:03;100397.69;;;2.27;97.19
77450;BME280;66536;53.150;18.172;2024-02-26T02:06:30;100399.73;;;2.31;97.11
77450;BME280;66536;53.150;18.172;2024-02-26T02:09:01;100402.37;;;2.33;96.96
77450;BME280;66536;53.150;18.172;2024-02-26T02:11:33;100403.05;;;2.33;96.78
77450;BME280;66536;53.150;18.172;2024-02-26T02:13:59;100401.73;;;2.33;96.59
77450;BME280;66536;53.150;18.172;2024-02-26T02:16:26;100403.30;;;2.32;96.61
77450;BME280;66536;53.150;18.172;2024-02-26T02:18:52;100399.73;;;2.32;96.75
77450;BME280;66536;53.150;18.172;2024-02-26T02:21:18;100401.04;;;2.33;96.69
77450;BME280;66536;53.150;18.172;2024-02-26T02:23:44;100399.25;;;2.30;96.64
77450;BME280;66536;53.150;18.172;2024-02-26T02:26:14;100398.02;;;2.28;96.56
77450;BME280;66536;53.150;18.172;2024-02-26T02:28:41;100394.85;;;2.22;96.56
77450;BME280;66536;53.150;18.172;2024-02-26T02:31:07;100397.55;;;2.17;96.53
77450;BME280;66536;53.150;18.172;2024-02-26T02:33:35;100389.52;;;2.08;96.28
77450;BME280;66536;53.150;18.172;2024-02-26T02:36:03;100388.86;;;2.03;96.48
77450;BME280;66536;53.150;18.172;2024-02-26T02:38:29;100386.98;;;2.00;96.82
77450;BME280;66536;53.150;18.172;2024-02-26T02:40:56;100386.31;;;1.96;97.04
77450;BME280;66536;53.150;18.172;2024-02-26T02:43:23;100393.67;;;1.94;97.26
77450;BME280;66536;53.150;18.172;2024-02-26T02:45:49;100393.92;;;1.90;97.20
77450;BME280;66536;53.150;18.172;2024-02-26T02:48:17;100397.40;;;1.86;97.08
77450;BME280;66536;53.150;18.172;2024-02-26T02:50:45;100396.43;;;1.81;96.89
77450;BME280;66536;53.150;18.172;2024-02-26T02:53:13;100400.53;;;1.76;96.83
77450;BME280;66536;53.150;18.172;2024-02-26T02:55:39;100398.39;;;1.72;97.07
77450;BME280;66536;53.150;18.172;2024-02-26T02:58:06;100398.48;;;1.71;97.48
77450;BME280;66536;53.150;18.172;2024-02-26T03:00:33;100396.25;;;1.70;97.45
77450;BME280;66536;53.150;18.172;2024-02-26T03:03:03;100402.46;;;1.68;97.53
77450;BME280;66536;53.150;18.172;2024-02-26T03:05:31;100409.98;;;1.68;97.67
77450;BME280;66536;53.150;18.172;2024-02-26T03:07:57;100409.09;;;1.67;97.71
77450;BME280;66536;53.150;18.172;2024-02-26T03:10:26;100411.54;;;1.66;97.46
77450;BME280;66536;53.150;18.172;2024-02-26T03:12:55;100409.38;;;1.66;97.46
77450;BME280;66536;53.150;18.172;2024-02-26T03:15:25;100409.05;;;1.66;97.52
77450;BME280;66536;53.150;18.172;2024-02-26T03:17:52;100409.84;;;1.65;97.51
77450;BME280;66536;53.150;18.172;2024-02-26T03:20:20;100411.51;;;1.63;97.53
77450;BME280;66536;53.150;18.172;2024-02-26T03:22:47;100409.78;;;1.64;97.62
77450;BME280;66536;53.150;18.172;2024-02-26T03:25:15;100411.50;;;1.65;97.55
77450;BME280;66536;53.150;18.172;2024-02-26T03:27:44;100409.11;;;1.67;97.61
77450;BME280;66536;53.150;18.172;2024-02-26T03:30:10;100406.74;;;1.68;97.65
77450;BME280;66536;53.150;18.172;2024-02-26T03:32:37;100403.20;;;1.73;97.75
77450;BME280;66536;53.150;18.172;2024-02-26T03:35:04;100407.40;;;1.77;97.93
77450;BME280;66536;53.150;18.172;2024-02-26T03:37:30;100405.52;;;1.82;98.09
77450;BME280;66536;53.150;18.172;2024-02-26T03:39:56;100407.89;;;1.87;98.07
77450;BME280;66536;53.150;18.172;2024-02-26T03:42:23;100405.77;;;1.91;98.18
77450;BME280;66536;53.150;18.172;2024-02-26T03:44:50;100409.79;;;1.93;98.04
77450;BME280;66536;53.150;18.172;2024-02-26T03:47:19;100411.38;;;1.94;97.95
77450;BME280;66536;53.150;18.172;2024-02-26T03:49:45;100414.34;;;1.97;97.89
77450;BME280;66536;53.150;18.172;2024-02-26T03:52:11;100413.02;;;1.98;97.93
77450;BME280;66536;53.150;18.172;2024-02-26T03:54:38;100409.76;;;2.00;97.92
77450;BME280;66536;53.150;18.172;2024-02-26T03:57:04;100411.70;;;2.02;98.00
77450;BME280;66536;53.150;18.172;2024-02-26T03:59:31;100406.83;;;2.07;98.13
77450;BME280;66536;53.150;18.172;2024-02-26T04:02:00;100415.94;;;2.09;97.98
77450;BME280;66536;53.150;18.172;2024-02-26T04:04:29;100415.84;;;2.12;97.95
77450;BME280;66536;53.150;18.172;2024-02-26T04:06:55;100417.82;;;2.11;97.61
77450;BME280;66536;53.150;18.172;2024-02-26T04:09:21;100414.52;;;2.06;97.38
77450;BME280;66536;53.150;18.172;2024-02-26T04:11:50;100415.21;;;2.03;97.37
77450;BME280;66536;53.150;18.172;2024-02-26T04:14:21;100414.48;;;2.02;97.56
77450;BME280;66536;53.150;18.172;2024-02-26T04:16:47;100416.90;;;2.01;97.70
77450;BME280;66536;53.150;18.172;2024-02-26T04:19:18;100415.98;;;2.00;97.77
77450;BME280;66536;53.150;18.172;2024-02-26T04:21:44;100415.11;;;1.94;97.35
77450;BME280;66536;53.150;18.172;2024-02-26T04:24:12;100412.01;;;1.89;97.37
77450;BME280;66536;53.150;18.172;2024-02-26T04:26:41;100409.52;;;1.89;97.86
77450;BME280;66536;53.150;18.172;2024-02-26T04:29:07;100410.70;;;1.88;98.07
77450;BME280;66536;53.150;18.172;2024-02-26T04:31:33;100408.30;;;1.86;98.17
77450;BME280;66536;53.150;18.172;2024-02-26T04:33:59;100415.41;;;1.86;98.23
77450;BME280;66536;53.150;18.172;2024-02-26T04:36:30;100413.02;;;1.86;98.24
77450;BME280;66536;53.150;18.172;2024-02-26T04:38:59;100416.17;;;1.86;98.14
77450;BME280;66536;53.150;18.172;2024-02-26T04:41:30;100417.65;;;1.81;97.85
77450;BME280;66536;53.150;18.172;2024-02-26T04:43:59;100418.39;;;1.77;97.90
77450;BME280;66536;53.150;18.172;2024-02-26T04:46:28;100421.26;;;1.76;98.06
77450;BME280;66536;53.150;18.172;2024-02-26T04:49:02;100419.18;;;1.75;98.19
77450;BME280;66536;53.150;18.172;2024-02-26T04:52:36;100419.50;;;1.73;98.10
77450;BME280;66536;53.150;18.172;2024-02-26T04:56:20;100418.04;;;1.68;98.08
77450;BME280;66536;53.150;18.172;2024-02-26T04:59:30;100416.09;;;1.65;98.17
77450;BME280;66536;53.150;18.172;2024-02-26T05:02:09;100422.27;;;1.58;97.81
77450;BME280;66536;53.150;18.172;2024-02-26T05:04:49;100425.63;;;1.53;97.69
77450;BME280;66536;53.150;18.172;2024-02-26T05:07:40;100431.53;;;1.47;97.63
77450;BME280;66536;53.150;18.172;2024-02-26T05:13:37;100438.34;;;1.37;97.81
77450;BME280;66536;53.150;18.172;2024-02-26T05:16:36;100449.80;;;1.36;98.30
77450;BME280;66536;53.150;18.172;2024-02-26T05:19:05;100449.81;;;1.38;98.50
77450;BME280;66536;53.150;18.172;2024-02-26T05:21:37;100449.73;;;1.39;98.53
77450;BME280;66536;53.150;18.172;2024-02-26T05:24:13;100456.09;;;1.36;98.26
77450;BME280;66536;53.150;18.172;2024-02-26T05:30:24;100465.13;;;1.31;98.25
77450;BME280;66536;53.150;18.172;2024-02-26T05:33:55;100466.98;;;1.31;98.19
77450;BME280;66536;53.150;18.172;2024-02-26T05:36:27;100466.41;;;1.25;97.85
77450;BME280;66536;53.150;18.172;2024-02-26T05:39:00;100467.45;;;1.23;97.90
77450;BME280;66536;53.150;18.172;2024-02-26T05:41:26;100468.89;;;1.24;98.25
77450;BME280;66536;53.150;18.172;2024-02-26T05:43:53;100471.06;;;1.24;98.32
77450;BME280;66536;53.150;18.172;2024-02-26T05:46:20;100474.80;;;1.23;98.27
77450;BME280;66536;53.150;18.172;2024-02-26T05:48:47;100474.48;;;1.22;98.26
77450;BME280;66536;53.150;18.172;2024-02-26T05:51:15;100480.77;;;1.22;98.24
77450;BME280;66536;53.150;18.172;2024-02-26T05:53:41;100484.95;;;1.23;98.28
77450;BME280;66536;53.150;18.172;2024-02-26T05:56:08;100489.98;;;1.22;98.25
77450;BME280;66536;53.150;18.172;2024-02-26T05:58:34;100493.56;;;1.20;98.03
77450;BME280;66536;53.150;18.172;2024-02-26T06:01:01;100492.24;;;1.20;97.92
77450;BME280;66536;53.150;18.172;2024-02-26T06:03:27;100496.79;;;1.20;98.06
77450;BME280;66536;53.150;18.172;2024-02-26T06:05:53;100496.70;;;1.23;98.23
77450;BME280;66536;53.150;18.172;2024-02-26T06:08:19;100496.77;;;1.25;98.13
77450;BME280;66536;53.150;18.172;2024-02-26T06:10:47;100493.39;;;1.27;98.04
77450;BME280;66536;53.150;18.172;2024-02-26T06:13:16;100487.11;;;1.29;97.77
77450;BME280;66536;53.150;18.172;2024-02-26T06:15:43;100493.77;;;1.30;97.61
77450;BME280;66536;53.150;18.172;2024-02-26T06:18:09;100495.61;;;1.32;97.69
77450;BME280;66536;53.150;18.172;2024-02-26T06:20:35;100499.21;;;1.39;98.03
77450;BME280;66536;53.150;18.172;2024-02-26T06:23:01;100503.99;;;1.43;98.00
77450;BME280;66536;53.150;18.172;2024-02-26T06:25:28;100504.02;;;1.48;97.89
77450;BME280;66536;53.150;18.172;2024-02-26T06:27:54;100503.52;;;1.51;97.76
77450;BME280;66536;53.150;18.172;2024-02-26T06:30:23;100504.55;;;1.55;97.63
77450;BME280;66536;53.150;18.172;2024-02-26T06:32:51;100500.38;;;1.56;97.51
77450;BME280;66536;53.150;18.172;2024-02-26T06:35:17;100508.78;;;1.58;97.53
77450;BME280;66536;53.150;18.172;2024-02-26T06:37:43;100514.03;;;1.63;97.60
77450;BME280;66536;53.150;18.172;2024-02-26T06:40:09;100518.06;;;1.69;97.67
77450;BME280;66536;53.150;18.172;2024-02-26T06:42:35;100515.77;;;1.75;97.66
77450;BME280;66536;53.150;18.172;2024-02-26T06:45:02;100522.14;;;1.81;97.36
77450;BME280;66536;53.150;18.172;2024-02-26T06:47:31;100523.61;;;1.88;97.42
77450;BME280;66536;53.150;18.172;2024-02-26T06:49:57;100516.64;;;1.94;97.14
77450;BME280;66536;53.150;18.172;2024-02-26T06:52:25;100513.10;;;1.94;96.75
77450;BME280;66536;53.150;18.172;2024-02-26T06:54:52;100514.45;;;1.91;96.33
77450;BME280;66536;53.150;18.172;2024-02-26T06:57:26;100516.85;;;1.91;96.51
77450;BME280;66536;53.150;18.172;2024-02-26T06:59:53;100519.85;;;1.90;96.56
77450;BME280;66536;53.150;18.172;2024-02-26T07:02:19;100513.38;;;1.90;96.72
77450;BME280;66536;53.150;18.172;2024-02-26T07:04:47;100512.02;;;1.92;96.88
77450;BME280;66536;53.150;18.172;2024-02-26T07:07:46;100515.20;;;1.94;96.97
77450;BME280;66536;53.150;18.172;2024-02-26T07:10:12;100520.70;;;1.99;97.05
77450;BME280;66536;53.150;18.172;2024-02-26T07:37:18;100537.84;;;2.66;95.89
77450;BME280;66536;53.150;18.172;2024-02-26T07:39:44;100540.92;;;2.77;96.27
77450;BME280;66536;53.150;18.172;2024-02-26T07:42:10;100544.56;;;2.84;95.91
77450;BME280;66536;53.150;18.172;2024-02-26T07:44:37;100544.83;;;2.90;95.64
77450;BME280;66536;53.150;18.172;2024-02-26T07:47:04;100550.71;;;2.98;95.03
77450;BME280;66536;53.150;18.172;2024-02-26T07:49:30;100548.55;;;3.14;95.25
77450;BME280;66536;53.150;18.172;2024-02-26T07:51:56;100549.91;;;3.29;95.25
77450;BME280;66536;53.150;18.172;2024-02-26T07:54:24;100557.33;;;3.45;95.21
77450;BME280;66536;53.150;18.172;2024-02-26T07:56:50;100554.60;;;3.64;95.15
77450;BME280;66536;53.150;18.172;2024-02-26T07:59:17;100553.11;;;3.81;94.67
77450;BME280;66536;53.150;18.172;2024-02-26T08:01:48;100554.25;;;3.92;94.24
77450;BME280;66536;53.150;18.172;2024-02-26T08:04:15;100560.25;;;3.96;94.00
77450;BME280;66536;53.150;18.172;2024-02-26T08:06:42;100560.81;;;3.95;93.33
77450;BME280;66536;53.150;18.172;2024-02-26T08:09:08;100555.02;;;3.96;93.39
77450;BME280;66536;53.150;18.172;2024-02-26T08:11:35;100560.47;;;3.99;93.34
77450;BME280;66536;53.150;18.172;2024-02-26T08:14:01;100558.38;;;4.01;93.07
77450;BME280;66536;53.150;18.172;2024-02-26T08:16:27;100555.02;;;4.04;93.08
77450;BME280;66536;53.150;18.172;2024-02-26T08:18:55;100565.19;;;4.06;92.77
77450;BME280;66536;53.150;18.172;2024-02-26T08:21:21;100569.01;;;4.00;92.56
77450;BME280;66536;53.150;18.172;2024-02-26T08:23:48;100570.43;;;4.03;93.13
77450;BME280;66536;53.150;18.172;2024-02-26T08:26:14;100569.45;;;4.03;92.82
77450;BME280;66536;53.150;18.172;2024-02-26T08:28:40;100564.66;;;4.04;93.12
77450;BME280;66536;53.150;18.172;2024-02-26T08:31:06;100566.89;;;4.09;93.27
77450;BME280;66536;53.150;18.172;2024-02-26T08:33:33;100564.79;;;4.13;93.00
77450;BME280;66536;53.150;18.172;2024-02-26T08:36:04;100562.23;;;4.23;93.30
77450;BME280;66536;53.150;18.172;2024-02-26T08:38:31;100558.88;;;4.35;92.87
77450;BME280;66536;53.150;18.172;2024-02-26T08:40:57;100562.42;;;4.46;92.56
77450;BME280;66536;53.150;18.172;2024-02-26T08:43:23;100564.75;;;4.56;92.09
77450;BME280;66536;53.150;18.172;2024-02-26T08:45:49;100568.30;;;4.61;91.98
77450;BME280;66536;53.150;18.172;2024-02-26T08:48:16;100571.13;;;4.64;91.86
77450;BME280;66536;53.150;18.172;2024-02-26T08:50:43;100568.10;;;4.71;91.81
77450;BME280;66536;53.150;18.172;2024-02-26T08:53:10;100570.88;;;4.77;91.54
77450;BME280;66536;53.150;18.172;2024-02-26T08:55:36;100575.44;;;4.81;91.66
77450;BME280;66536;53.150;18.172;2024-02-26T08:58:02;100573.41;;;4.94;91.94
77450;BME280;66536;53.150;18.172;2024-02-26T09:00:28;100579.28;;;5.13;91.97
77450;BME280;66536;53.150;18.172;2024-02-26T09:02:54;100581.65;;;5.18;91.33
77450;BME280;66536;53.150;18.172;2024-02-26T09:05:21;100582.30;;;5.17;91.30
77450;BME280;66536;53.150;18.172;2024-02-26T09:07:47;100585.81;;;5.25;91.54
77450;BME280;66536;53.150;18.172;2024-02-26T09:10:15;100589.05;;;5.26;91.11
77450;BME280;66536;53.150;18.172;2024-02-26T09:12:41;100587.58;;;5.26;90.65
77450;BME280;66536;53.150;18.172;2024-02-26T09:15:09;100587.55;;;5.32;90.85
77450;BME280;66536;53.150;18.172;2024-02-26T09:17:35;100586.34;;;5.42;90.58
77450;BME280;66536;53.150;18.172;2024-02-26T09:20:03;100589.96;;;5.52;90.67
77450;BME280;66536;53.150;18.172;2024-02-26T09:22:31;100592.52;;;5.57;90.38
77450;BME280;66536;53.150;18.172;2024-02-26T09:24:58;100589.59;;;5.54;90.45
77450;BME280;66536;53.150;18.172;2024-02-26T09:27:24;100594.10;;;5.58;90.69
77450;BME280;66536;53.150;18.172;2024-02-26T09:29:50;100598.20;;;5.65;90.57
77450;BME280;66536;53.150;18.172;2024-02-26T09:32:16;100596.77;;;5.70;90.33
77450;BME280;66536;53.150;18.172;2024-02-26T09:34:43;100596.47;;;5.74;90.52
77450;BME280;66536;53.150;18.172;2024-02-26T09:37:10;100592.67;;;5.79;90.36
77450;BME280;66536;53.150;18.172;2024-02-26T09:39:36;100589.28;;;5.89;90.40
77450;BME280;66536;53.150;18.172;2024-02-26T09:42:04;100593.08;;;5.99;90.33
77450;BME280;66536;53.150;18.172;2024-02-26T09:44:31;100593.20;;;5.99;90.40
77450;BME280;66536;53.150;18.172;2024-02-26T09:47:02;100593.61;;;6.10;90.96
77450;BME280;66536;53.150;18.172;2024-02-26T09:49:29;100597.13;;;6.27;90.82
77450;BME280;66536;53.150;18.172;2024-02-26T09:51:56;100603.62;;;6.47;90.62
77450;BME280;66536;53.150;18.172;2024-02-26T09:54:24;100601.45;;;6.65;90.44
77450;BME280;66536;53.150;18.172;2024-02-26T09:56:55;100599.75;;;6.71;89.95
77450;BME280;66536;53.150;18.172;2024-02-26T09:59:27;100600.46;;;6.70;89.51
77450;BME280;66536;53.150;18.172;2024-02-26T10:01:53;100603.48;;;6.71;89.20
77450;BME280;66536;53.150;18.172;2024-02-26T10:04:20;100603.65;;;6.75;89.42
77450;BME280;66536;53.150;18.172;2024-02-26T10:06:47;100600.55;;;6.82;89.47
77450;BME280;66536;53.150;18.172;2024-02-26T10:09:16;100599.63;;;6.81;89.00
77450;BME280;66536;53.150;18.172;2024-02-26T10:11:43;100598.98;;;6.80;89.41
77450;BME280;66536;53.150;18.172;2024-02-26T10:14:09;100599.78;;;6.90;89.41
77450;BME280;66536;53.150;18.172;2024-02-26T10:16:38;100600.19;;;6.99;89.37
77450;BME280;66536;53.150;18.172;2024-02-26T10:19:06;100598.64;;;7.09;89.42
77450;BME280;66536;53.150;18.172;2024-02-26T10:21:32;100595.90;;;7.16;89.26
77450;BME280;66536;53.150;18.172;2024-02-26T10:23:58;100597.88;;;7.17;88.91
77450;BME280;66536;53.150;18.172;2024-02-26T10:26:25;100595.87;;;7.18;89.22
77450;BME280;66536;53.150;18.172;2024-02-26T10:28:52;100589.14;;;7.18;88.87
77450;BME280;66536;53.150;18.172;2024-02-26T10:31:18;100591.69;;;7.20;88.89
77450;BME280;66536;53.150;18.172;2024-02-26T10:33:44;100592.98;;;7.18;89.05
77450;BME280;66536;53.150;18.172;2024-02-26T10:36:12;100588.36;;;7.18;89.58
77450;BME280;66536;53.150;18.172;2024-02-26T10:38:38;100585.82;;;7.24;89.97
77450;BME280;66536;53.150;18.172;2024-02-26T10:41:06;100579.73;;;7.32;89.73
77450;BME280;66536;53.150;18.172;2024-02-26T10:43:32;100577.63;;;7.39;89.60
77450;BME280;66536;53.150;18.172;2024-02-26T10:45:58;100578.58;;;7.46;89.60
77450;BME280;66536;53.150;18.172;2024-02-26T10:48:25;100576.72;;;7.53;89.45
77450;BME280;66536;53.150;18.172;2024-02-26T10:50:51;100577.92;;;7.61;89.26
77450;BME280;66536;53.150;18.172;2024-02-26T10:53:21;100583.15;;;7.75;89.73
77450;BME280;66536;53.150;18.172;2024-02-26T10:55:52;100583.63;;;7.92;89.73
77450;BME280;66536;53.150;18.172;2024-02-26T10:58:21;100583.72;;;8.08;89.45
77450;BME280;66536;53.150;18.172;2024-02-26T11:00:51;100587.45;;;8.14;89.31
77450;BME280;66536;53.150;18.172;2024-02-26T11:03:19;100585.59;;;8.12;89.29
77450;BME280;66536;53.150;18.172;2024-02-26T11:05:48;100585.39;;;8.14;89.48
77450;BME280;66536;53.150;18.172;2024-02-26T11:08:16;100585.33;;;8.29;89.64
77450;BME280;66536;53.150;18.172;2024-02-26T11:10:47;100580.21;;;8.56;89.20
77450;BME280;66536;53.150;18.172;2024-02-26T11:13:15;100575.20;;;8.81;88.65
77450;BME280;66536;53.150;18.172;2024-02-26T11:15:46;100570.73;;;9.00;87.77
77450;BME280;66536;53.150;18.172;2024-02-26T11:18:15;100571.96;;;9.19;87.40
77450;BME280;66536;53.150;18.172;2024-02-26T11:20:42;100568.98;;;9.30;87.69
77450;BME280;66536;53.150;18.172;2024-02-26T11:23:09;100566.40;;;9.48;86.91
77450;BME280;66536;53.150;18.172;2024-02-26T11:25:36;100567.67;;;9.55;86.84
77450;BME280;66536;53.150;18.172;2024-02-26T11:28:05;100569.09;;;9.66;86.62
77450;BME280;66536;53.150;18.172;2024-02-26T11:30:37;100569.91;;;9.78;86.40
77450;BME280;66536;53.150;18.172;2024-02-26T11:33:08;100567.44;;;9.83;86.24
77450;BME280;66536;53.150;18.172;2024-02-26T11:35:36;100563.28;;;9.93;86.02
77450;BME280;66536;53.150;18.172;2024-02-26T11:38:04;100558.95;;;10.00;86.14
77450;BME280;66536;53.150;18.172;2024-02-26T11:40:33;100556.52;;;10.13;85.92
77450;BME280;66536;53.150;18.172;2024-02-26T11:42:59;100568.08;;;10.25;85.61
77450;BME280;66536;53.150;18.172;2024-02-26T11:45:47;100569.95;;;10.38;85.69
77450;BME280;66536;53.150;18.172;2024-02-26T11:48:16;100571.70;;;10.54;85.68
77450;BME280;66536;53.150;18.172;2024-02-26T11:50:48;100573.45;;;10.71;85.62
77450;BME280;66536;53.150;18.172;2024-02-26T11:53:25;100571.98;;;10.86;85.17
77450;BME280;66536;53.150;18.172;2024-02-26T11:58:40;100565.61;;;11.08;84.09
77450;BME280;66536;53.150;18.172;2024-02-26T12:04:05;100563.27;;;11.39;83.37
77450;BME280;66536;53.150;18.172;2024-02-26T12:06:42;100564.04;;;11.49;83.01
77450;BME280;66536;53.150;18.172;2024-02-26T12:09:09;100556.15;;;11.56;82.74
77450;BME280;66536;53.150;18.172;2024-02-26T12:11:38;100558.68;;;11.59;82.39
77450;BME280;66536;53.150;18.172;2024-02-26T12:14:08;100557.02;;;11.54;82.18
77450;BME280;66536;53.150;18.172;2024-02-26T12:16:36;100561.50;;;11.48;82.08
77450;BME280;66536;53.150;18.172;2024-02-26T12:19:05;100560.61;;;11.50;82.07
77450;BME280;66536;53.150;18.172;2024-02-26T12:21:34;100555.40;;;11.60;81.18
77450;BME280;66536;53.150;18.172;2024-02-26T12:24:11;100557.19;;;11.71;80.85
77450;BME280;66536;53.150;18.172;2024-02-26T12:26:39;100557.64;;;11.83;80.82
77450;BME280;66536;53.150;18.172;2024-02-26T12:29:06;100557.41;;;11.99;80.54
77450;BME280;66536;53.150;18.172;2024-02-26T12:31:33;100557.76;;;12.17;80.20
77450;BME280;66536;53.150;18.172;2024-02-26T12:34:00;100553.84;;;12.36;79.75
77450;BME280;66536;53.150;18.172;2024-02-26T12:36:27;100557.28;;;12.49;79.07
77450;BME280;66536;53.150;18.172;2024-02-26T12:38:53;100551.31;;;12.59;78.83
77450;BME280;66536;53.150;18.172;2024-02-26T12:41:20;100552.14;;;12.65;78.52
77450;BME280;66536;53.150;18.172;2024-02-26T12:43:47;100549.53;;;12.68;77.79
77450;BME280;66536;53.150;18.172;2024-02-26T12:46:13;100548.95;;;12.70;78.12
77450;BME280;66536;53.150;18.172;2024-02-26T12:48:43;100545.95;;;12.73;77.90
77450;BME280;66536;53.150;18.172;2024-02-26T12:51:12;100545.23;;;12.73;77.36
77450;BME280;66536;53.150;18.172;2024-02-26T12:53:41;100543.34;;;12.73;77.31
77450;BME280;66536;53.150;18.172;2024-02-26T12:56:08;100543.48;;;12.74;77.28
77450;BME280;66536;53.150;18.172;2024-02-26T12:58:38;100543.70;;;12.81;77.44
77450;BME280;66536;53.150;18.172;2024-02-26T13:01:06;100536.19;;;12.88;76.95
77450;BME280;66536;53.150;18.172;2024-02-26T13:03:35;100538.98;;;12.97;76.17
77450;BME280;66536;53.150;18.172;2024-02-26T13:06:02;100535.61;;;13.05;76.05
77450;BME280;66536;53.150;18.172;2024-02-26T13:08:28;100539.04;;;13.16;75.34
77450;BME280;66536;53.150;18.172;2024-02-26T13:10:55;100542.61;;;13.27;75.14
77450;BME280;66536;53.150;18.172;2024-02-26T13:13:22;100543.65;;;13.36;75.36
77450;BME280;66536;53.150;18.172;2024-02-26T13:15:48;100544.90;;;13.44;74.74
77450;BME280;66536;53.150;18.172;2024-02-26T13:18:15;100546.26;;;13.51;74.81
77450;BME280;66536;53.150;18.172;2024-02-26T13:20:43;100536.55;;;13.57;73.93
77450;BME280;66536;53.150;18.172;2024-02-26T13:23:12;100534.27;;;13.58;73.50
77450;BME280;66536;53.150;18.172;2024-02-26T13:25:40;100530.67;;;13.57;72.85
77450;BME280;66536;53.150;18.172;2024-02-26T13:28:14;100530.27;;;13.50;72.82
77450;BME280;66536;53.150;18.172;2024-02-26T13:30:49;100537.27;;;13.44;72.97
77450;BME280;66536;53.150;18.172;2024-02-26T13:33:16;100535.18;;;13.42;73.57
77450;BME280;66536;53.150;18.172;2024-02-26T13:35:43;100541.65;;;13.40;73.33